Time;durP1;ratioP1;P1;durP2;ratioP2;P2;SDS_P1;SDS_P2;PMS_P1;PMS_P2;Temp;Humidity;BMP_temperature;BMP_pressure;BME280_temperature;BME280_humidity;BME280_pressure;Samples;Min_cycle;Max_cycle;Signal;HPM_P1;HPM_P2
2022/01/11 00:00:10;;;;;;;78.63;33.38;;;;;;;;;;4994832;28;20231;-74
2022/01/11 00:02:40;;;;;;;83.65;33.28;;;;;;;;;;5016545;28;20028;-73
2022/01/11 00:05:07;;;;;;;80.18;34.03;;;;;;;;;;5017395;28;20022;-72
2022/01/11 00:07:35;;;;;;;84.78;36.50;;;;;;;;;;4999269;28;20018;-72
2022/01/11 00:10:05;;;;;;;86.55;37.33;;;;;;;;;;5017156;28;20331;-73
2022/01/11 00:12:31;;;;;;;77.95;36.80;;;;;;;;;;5016649;28;20387;-72
2022/01/11 00:14:57;;;;;;;83.95;35.90;;;;;;;;;;5017289;28;20029;-73
2022/01/11 00:17:25;;;;;;;85.25;36.75;;;;;;;;;;5015986;28;20044;-73
2022/01/11 00:19:51;;;;;;;83.22;34.88;;;;;;;;;;5016940;28;20022;-72
2022/01/11 00:22:19;;;;;;;82.15;34.67;;;;;;;;;;5016258;28;20033;-72
2022/01/11 00:24:45;;;;;;;86.20;33.97;;;;;;;;;;5017278;28;20025;-72
2022/01/11 00:27:11;;;;;;;67.53;31.48;;;;;;;;;;5016622;28;20101;-72
2022/01/11 00:29:44;;;;;;;79.30;35.42;;;;;;;;;;5015784;28;20084;-73
2022/01/11 00:32:15;;;;;;;64.65;35.45;;;;;;;;;;4999524;28;20320;-73
2022/01/11 00:34:52;;;;;;;66.03;32.70;;;;;;;;;;5017458;28;20029;-73
2022/01/11 00:37:19;;;;;;;78.82;35.42;;;;;;;;;;5015164;28;20030;-72
2022/01/11 00:39:46;;;;;;;77.72;34.33;;;;;;;;;;5016581;28;20332;-72
2022/01/11 00:42:16;;;;;;;71.93;31.80;;;;;;;;;;5016467;28;20109;-72
2022/01/11 00:44:43;;;;;;;68.10;36.95;;;;;;;;;;5017370;28;20033;-73
2022/01/11 00:47:09;;;;;;;85.60;36.20;;;;;;;;;;5016618;28;20093;-72
2022/01/11 00:49:36;;;;;;;69.03;31.00;;;;;;;;;;5016398;28;20114;-73
2022/01/11 00:52:02;;;;;;;80.25;37.95;;;;;;;;;;5016262;28;20036;-73
2022/01/11 00:54:28;;;;;;;62.50;29.17;;;;;;;;;;4999402;28;20025;-72
2022/01/11 00:56:54;;;;;;;74.55;34.65;;;;;;;;;;5015676;28;20317;-72
2022/01/11 00:59:26;;;;;;;87.05;34.95;;;;;;;;;;5014223;28;20045;-73
2022/01/11 01:01:54;;;;;;;83.35;38.67;;;;;;;;;;5015416;28;20485;-72
2022/01/11 01:04:20;;;;;;;83.32;34.10;;;;;;;;;;5015121;28;20025;-72
2022/01/11 01:06:46;;;;;;;77.60;33.30;;;;;;;;;;5015748;28;20155;-72
2022/01/11 01:09:13;;;;;;;73.65;33.00;;;;;;;;;;5015593;28;20060;-72
2022/01/11 01:11:41;;;;;;;77.85;31.33;;;;;;;;;;5015026;28;20022;-74
2022/01/11 01:14:07;;;;;;;74.18;35.55;;;;;;;;;;4999394;28;20025;-72
2022/01/11 01:16:37;;;;;;;84.80;36.40;;;;;;;;;;5015502;28;20442;-73
2022/01/11 01:19:03;;;;;;;88.20;31.77;;;;;;;;;;5014593;28;20032;-73
2022/01/11 01:21:36;;;;;;;99.43;36.72;;;;;;;;;;4998525;28;20064;-73
2022/01/11 01:24:04;;;;;;;77.68;33.35;;;;;;;;;;5019092;28;20397;-73
2022/01/11 01:26:31;;;;;;;82.50;34.85;;;;;;;;;;5018403;28;20026;-72
2022/01/11 01:28:59;;;;;;;87.93;39.08;;;;;;;;;;5018445;28;20339;-73
2022/01/11 01:31:29;;;;;;;72.35;33.42;;;;;;;;;;5019016;28;20018;-73
2022/01/11 01:33:56;;;;;;;73.28;36.20;;;;;;;;;;5019438;28;20462;-72
2022/01/11 01:36:25;;;;;;;83.25;38.22;;;;;;;;;;5018619;28;20364;-73
2022/01/11 01:38:51;;;;;;;77.38;33.35;;;;;;;;;;5019568;28;20105;-73
2022/01/11 01:41:19;;;;;;;74.82;32.05;;;;;;;;;;5019253;28;20029;-73
2022/01/11 01:43:48;;;;;;;86.40;37.60;;;;;;;;;;5017689;28;20097;-73
2022/01/11 01:46:15;;;;;;;75.88;31.92;;;;;;;;;;5019410;28;20153;-73
2022/01/11 01:48:42;;;;;;;86.07;38.75;;;;;;;;;;5018195;28;20020;-72
2022/01/11 01:51:10;;;;;;;74.85;32.38;;;;;;;;;;5018512;28;20503;-73
2022/01/11 01:53:38;;;;;;;83.95;35.90;;;;;;;;;;5018568;28;20474;-73
2022/01/11 01:56:06;;;;;;;72.60;35.40;;;;;;;;;;5017350;28;20038;-73
2022/01/11 01:58:32;;;;;;;97.10;37.60;;;;;;;;;;5018407;28;20025;-72
2022/01/11 02:01:03;;;;;;;73.70;34.10;;;;;;;;;;5019834;28;20033;-72
2022/01/11 02:03:31;;;;;;;74.85;31.80;;;;;;;;;;5017685;28;20036;-72
2022/01/11 02:05:58;;;;;;;83.95;37.70;;;;;;;;;;5018939;28;20321;-72
2022/01/11 02:08:24;;;;;;;75.07;35.47;;;;;;;;;;5018137;28;20024;-73
2022/01/11 02:10:52;;;;;;;89.85;35.50;;;;;;;;;;5018199;28;20034;-72
2022/01/11 02:13:18;;;;;;;76.55;36.45;;;;;;;;;;5018642;28;20057;-73
2022/01/11 02:15:46;;;;;;;101.10;50.85;;;;;;;;;;5015992;28;20061;-73
2022/01/11 02:18:15;;;;;;;87.88;41.20;;;;;;;;;;5001171;28;20025;-73
2022/01/11 02:20:46;;;;;;;91.57;41.35;;;;;;;;;;5017842;28;20054;-72
2022/01/11 02:23:16;;;;;;;87.80;38.88;;;;;;;;;;5017565;28;20032;-72
2022/01/11 02:25:43;;;;;;;92.32;41.20;;;;;;;;;;5001023;28;20335;-72
2022/01/11 02:28:11;;;;;;;78.28;34.75;;;;;;;;;;5018523;28;20420;-72
2022/01/11 02:30:37;;;;;;;91.75;37.05;;;;;;;;;;5018531;28;20022;-72
2022/01/11 02:33:08;;;;;;;84.40;37.58;;;;;;;;;;5015859;28;20432;-73
2022/01/11 02:35:36;;;;;;;90.53;38.47;;;;;;;;;;4999767;28;20029;-72
2022/01/11 02:38:05;;;;;;;80.47;37.20;;;;;;;;;;5000861;28;20022;-72
2022/01/11 02:40:33;;;;;;;82.80;34.38;;;;;;;;;;5016950;28;20045;-73
2022/01/11 02:43:07;;;;;;;86.13;37.03;;;;;;;;;;5026444;23;20466;-73
2022/01/11 02:45:35;;;;;;;88.45;38.88;;;;;;;;;;5031750;28;20024;-73
2022/01/11 02:48:01;;;;;;;95.97;41.55;;;;;;;;;;5022848;23;20105;-73
2022/01/11 02:50:27;;;;;;;102.78;39.00;;;;;;;;;;5014475;28;20022;-73
2022/01/11 02:52:54;;;;;;;91.85;41.03;;;;;;;;;;4999415;28;20104;-73
2022/01/11 02:55:20;;;;;;;84.30;38.75;;;;;;;;;;5016890;28;20025;-72
2022/01/11 02:57:46;;;;;;;93.05;40.60;;;;;;;;;;5015988;28;20076;-72
2022/01/11 03:00:23;;;;;;;100.85;43.60;;;;;;;;;;5016141;28;20044;-73
2022/01/11 03:02:56;;;;;;;100.68;41.95;;;;;;;;;;5032180;28;20022;-73
2022/01/11 03:05:22;;;;;;;100.43;40.97;;;;;;;;;;5015736;28;20021;-72
2022/01/11 03:07:49;;;;;;;107.32;39.60;;;;;;;;;;5016110;28;20325;-72
2022/01/11 03:10:34;;;;;;;107.20;41.90;;;;;;;;;;5015278;28;20076;-72
2022/01/11 03:13:05;;;;;;;111.85;40.85;;;;;;;;;;5013593;28;20041;-72
2022/01/11 03:15:31;;;;;;;122.43;42.45;;;;;;;;;;4997424;28;20120;-72
2022/01/11 03:17:57;;;;;;;116.07;42.50;;;;;;;;;;5015231;28;20030;-72
2022/01/11 03:20:24;;;;;;;118.05;40.80;;;;;;;;;;5013996;28;20017;-72
2022/01/11 03:22:50;;;;;;;103.90;40.63;;;;;;;;;;4996884;28;20040;-73
2022/01/11 03:27:59;;;;;;;92.80;39.90;;;;;;;;;;5054479;22;20079;-72
2022/01/11 03:30:26;;;;;;;97.25;39.25;;;;;;;;;;5053157;28;20021;-72
2022/01/11 03:32:53;;;;;;;100.05;38.33;;;;;;;;;;5036749;28;20049;-72
2022/01/11 03:35:20;;;;;;;95.50;42.72;;;;;;;;;;5052951;28;20025;-72
2022/01/11 03:37:47;;;;;;;96.82;38.40;;;;;;;;;;5054219;28;20434;-72
2022/01/11 03:40:17;;;;;;;104.75;46.92;;;;;;;;;;5052669;28;20284;-72
2022/01/11 03:42:46;;;;;;;94.20;40.42;;;;;;;;;;5052401;28;20473;-72
2022/01/11 03:45:12;;;;;;;95.97;43.70;;;;;;;;;;5053954;28;20020;-72
2022/01/11 03:47:39;;;;;;;87.55;35.45;;;;;;;;;;5037737;28;20071;-72
2022/01/11 03:50:06;;;;;;;87.90;36.17;;;;;;;;;;5040785;22;20063;-72
2022/01/11 03:52:32;;;;;;;105.03;43.90;;;;;;;;;;4997124;28;20029;-72
2022/01/11 03:57:28;;;;;;;138.88;47.53;;;;;;;;;;5014357;28;20034;-72
2022/01/11 04:00:00;;;;;;;118.25;42.03;;;;;;;;;;4995866;28;20044;-72
2022/01/11 04:02:41;;;;;;;118.43;49.80;;;;;;;;;;5014301;28;20037;-72
2022/01/11 04:05:12;;;;;;;122.25;41.40;;;;;;;;;;4996956;28;20030;-72
2022/01/11 04:07:41;;;;;;;99.82;36.40;;;;;;;;;;4997593;28;20132;-72
2022/01/11 04:10:08;;;;;;;120.13;43.45;;;;;;;;;;5013936;28;20102;-72
2022/01/11 04:12:34;;;;;;;92.28;37.63;;;;;;;;;;5014028;28;20045;-72
2022/01/11 04:15:02;;;;;;;100.53;41.90;;;;;;;;;;5014058;28;20017;-74
2022/01/11 04:17:33;;;;;;;91.55;39.50;;;;;;;;;;5013129;28;20033;-72
2022/01/11 04:20:03;;;;;;;104.95;40.40;;;;;;;;;;5012874;28;20021;-72
2022/01/11 04:22:31;;;;;;;96.50;41.17;;;;;;;;;;5013895;28;20014;-72
2022/01/11 04:24:59;;;;;;;80.47;34.05;;;;;;;;;;4995819;28;20018;-72
2022/01/11 04:27:25;;;;;;;90.88;38.47;;;;;;;;;;5012246;28;20044;-72
2022/01/11 04:29:52;;;;;;;85.63;37.45;;;;;;;;;;5013402;28;20022;-72
2022/01/11 04:32:19;;;;;;;94.63;38.75;;;;;;;;;;4996329;28;20033;-72
2022/01/11 04:34:46;;;;;;;83.20;33.58;;;;;;;;;;4996626;28;20018;-71
2022/01/11 04:37:13;;;;;;;91.75;40.22;;;;;;;;;;5014250;28;20038;-71
2022/01/11 04:39:39;;;;;;;97.70;40.30;;;;;;;;;;5013913;28;20109;-71
2022/01/11 04:42:06;;;;;;;100.22;40.55;;;;;;;;;;4996737;28;20091;-72
2022/01/11 04:44:32;;;;;;;93.75;39.75;;;;;;;;;;5013689;28;20022;-72
2022/01/11 04:46:58;;;;;;;93.78;37.83;;;;;;;;;;5013967;28;20033;-72
2022/01/11 04:49:24;;;;;;;93.70;38.00;;;;;;;;;;4997299;28;20033;-73
2022/01/11 04:51:50;;;;;;;89.50;41.92;;;;;;;;;;5013525;28;20041;-72
2022/01/11 04:54:17;;;;;;;104.88;47.00;;;;;;;;;;4997114;28;20180;-72
2022/01/11 04:56:44;;;;;;;104.50;44.50;;;;;;;;;;4997232;28;20058;-72
2022/01/11 04:59:12;;;;;;;114.45;45.92;;;;;;;;;;5000218;28;20109;-72
2022/01/11 05:01:42;;;;;;;99.72;41.92;;;;;;;;;;5000453;28;20080;-72
2022/01/11 05:04:13;;;;;;;92.13;42.72;;;;;;;;;;5001377;28;20340;-72
2022/01/11 05:06:41;;;;;;;97.70;39.67;;;;;;;;;;5016946;28;20025;-73
2022/01/11 05:09:08;;;;;;;103.30;41.08;;;;;;;;;;5018379;28;20041;-73
2022/01/11 05:11:34;;;;;;;133.07;54.28;;;;;;;;;;5003406;28;20117;-73
2022/01/11 05:14:00;;;;;;;113.93;47.88;;;;;;;;;;5018290;28;20367;-73
2022/01/11 05:16:27;;;;;;;103.88;42.83;;;;;;;;;;5016648;28;20363;-73
2022/01/11 05:18:54;;;;;;;92.47;41.17;;;;;;;;;;4999764;28;20442;-73
2022/01/11 05:21:22;;;;;;;107.90;41.70;;;;;;;;;;5016208;28;20026;-74
2022/01/11 05:23:48;;;;;;;108.05;45.88;;;;;;;;;;5000798;28;20022;-73
2022/01/11 05:26:21;;;;;;;103.93;42.13;;;;;;;;;;5000377;28;20025;-75
2022/01/11 05:28:58;;;;;;;114.40;42.60;;;;;;;;;;5010389;28;20430;-73
2022/01/11 05:31:25;;;;;;;99.28;45.38;;;;;;;;;;5016370;28;20040;-73
2022/01/11 05:33:51;;;;;;;105.55;43.55;;;;;;;;;;5016729;28;20037;-72
2022/01/11 05:36:18;;;;;;;99.00;40.58;;;;;;;;;;5001335;28;20128;-72
2022/01/11 05:38:46;;;;;;;98.93;40.42;;;;;;;;;;5016842;28;20033;-72
2022/01/11 05:41:12;;;;;;;110.05;45.92;;;;;;;;;;5016561;28;20057;-73
2022/01/11 05:43:39;;;;;;;110.45;46.75;;;;;;;;;;5000035;28;20022;-73
2022/01/11 05:46:06;;;;;;;98.53;42.90;;;;;;;;;;5015190;28;20045;-72
2022/01/11 05:48:32;;;;;;;95.47;43.35;;;;;;;;;;5000584;28;20022;-72
2022/01/11 05:50:59;;;;;;;112.60;51.47;;;;;;;;;;5001258;28;20030;-72
2022/01/11 05:53:26;;;;;;;108.55;51.35;;;;;;;;;;5000051;28;20022;-73
2022/01/11 05:55:53;;;;;;;107.28;52.28;;;;;;;;;;5016149;28;20053;-72
2022/01/11 05:58:21;;;;;;;120.80;52.05;;;;;;;;;;5016252;28;20021;-73
2022/01/11 06:00:48;;;;;;;116.40;47.33;;;;;;;;;;5016303;28;20030;-73
2022/01/11 06:03:25;;;;;;;114.70;47.00;;;;;;;;;;5017204;28;20014;-74
2022/01/11 06:05:58;;;;;;;102.20;50.40;;;;;;;;;;5014554;28;20113;-72
2022/01/11 06:08:25;;;;;;;113.38;46.13;;;;;;;;;;5000383;28;20121;-72
2022/01/11 06:10:51;;;;;;;103.75;46.35;;;;;;;;;;5016569;28;20301;-73
2022/01/11 06:13:17;;;;;;;102.60;42.55;;;;;;;;;;4999653;28;20045;-72
2022/01/11 06:15:43;;;;;;;125.47;47.80;;;;;;;;;;5017479;28;20348;-72
2022/01/11 06:18:10;;;;;;;108.97;44.88;;;;;;;;;;5016661;28;20408;-72
2022/01/11 06:20:36;;;;;;;124.47;54.63;;;;;;;;;;5016125;28;20109;-73
2022/01/11 06:23:07;;;;;;;91.00;40.22;;;;;;;;;;5016457;28;20117;-74
2022/01/11 06:25:34;;;;;;;102.47;42.50;;;;;;;;;;5015679;28;20420;-74
2022/01/11 06:28:02;;;;;;;94.85;40.22;;;;;;;;;;5018082;28;20436;-74
2022/01/11 06:30:28;;;;;;;105.22;45.33;;;;;;;;;;4999832;28;20089;-72
2022/01/11 06:32:58;;;;;;;108.78;47.67;;;;;;;;;;5017263;28;20417;-74
2022/01/11 06:35:43;;;;;;;117.75;54.22;;;;;;;;;;5029811;28;20109;-72
2022/01/11 06:38:09;;;;;;;103.53;39.58;;;;;;;;;;5016572;28;20017;-74
2022/01/11 06:40:44;;;;;;;105.90;48.08;;;;;;;;;;5014557;28;20026;-72
2022/01/11 06:43:10;;;;;;;104.32;45.28;;;;;;;;;;5014588;28;20022;-73
2022/01/11 06:45:36;;;;;;;98.30;45.75;;;;;;;;;;5016283;28;20022;-72
2022/01/11 06:48:05;;;;;;;129.00;56.70;;;;;;;;;;5014548;28;20080;-73
2022/01/11 06:50:32;;;;;;;108.63;44.88;;;;;;;;;;4996191;28;20069;-74
2022/01/11 06:53:01;;;;;;;115.38;46.58;;;;;;;;;;4999217;28;20121;-73
2022/01/11 06:55:30;;;;;;;116.38;48.47;;;;;;;;;;4999133;28;20029;-74
2022/01/11 06:57:57;;;;;;;119.25;55.00;;;;;;;;;;5013811;28;20317;-72
2022/01/11 07:00:24;;;;;;;113.82;47.22;;;;;;;;;;4999348;28;20022;-72
2022/01/11 07:02:53;;;;;;;115.00;50.45;;;;;;;;;;5016000;28;20026;-73
2022/01/11 07:05:20;;;;;;;114.70;51.50;;;;;;;;;;5017189;28;20022;-73
2022/01/11 07:07:54;;;;;;;119.03;48.47;;;;;;;;;;4999294;28;20022;-74
2022/01/11 07:10:27;;;;;;;116.68;50.97;;;;;;;;;;5015677;28;20046;-74
2022/01/11 07:12:58;;;;;;;117.03;47.50;;;;;;;;;;4998307;28;20038;-72
2022/01/11 07:15:24;;;;;;;117.18;48.63;;;;;;;;;;5015417;28;20037;-73
2022/01/11 07:17:50;;;;;;;115.25;52.78;;;;;;;;;;5015634;28;20033;-72
2022/01/11 07:20:18;;;;;;;112.68;56.58;;;;;;;;;;4998904;28;20042;-73
2022/01/11 07:22:47;;;;;;;123.38;46.60;;;;;;;;;;5014616;28;20053;-74
2022/01/11 07:25:17;;;;;;;121.65;50.78;;;;;;;;;;4999155;28;20037;-73
2022/01/11 07:27:46;;;;;;;133.75;58.60;;;;;;;;;;4998169;28;20022;-73
2022/01/11 07:30:12;;;;;;;131.40;62.30;;;;;;;;;;5012937;28;20025;-73
2022/01/11 07:32:41;;;;;;;112.05;48.92;;;;;;;;;;5015398;28;20046;-73
2022/01/11 07:35:14;;;;;;;122.00;55.75;;;;;;;;;;5014711;28;20022;-74
2022/01/11 07:37:45;;;;;;;114.05;48.50;;;;;;;;;;5012584;28;20033;-74
2022/01/11 07:40:13;;;;;;;120.13;55.22;;;;;;;;;;4999585;28;20018;-72
2022/01/11 07:42:42;;;;;;;117.50;46.40;;;;;;;;;;5013815;28;20452;-73
2022/01/11 07:45:12;;;;;;;112.30;45.67;;;;;;;;;;4999089;28;20383;-73
2022/01/11 07:47:38;;;;;;;115.47;50.20;;;;;;;;;;5015871;28;20023;-72
2022/01/11 07:50:06;;;;;;;128.23;52.08;;;;;;;;;;5016091;28;20021;-73
2022/01/11 07:52:32;;;;;;;120.22;49.00;;;;;;;;;;4999574;28;20065;-72
2022/01/11 07:54:59;;;;;;;117.70;48.40;;;;;;;;;;5012495;28;20042;-73
2022/01/11 07:57:25;;;;;;;124.50;56.22;;;;;;;;;;5015404;28;20037;-72
2022/01/11 07:59:51;;;;;;;119.80;51.63;;;;;;;;;;4999325;28;20018;-73
2022/01/11 08:02:17;;;;;;;119.32;53.67;;;;;;;;;;5016457;28;20113;-73
2022/01/11 08:04:43;;;;;;;128.52;58.33;;;;;;;;;;5016832;28;20022;-72
2022/01/11 08:07:12;;;;;;;123.53;50.88;;;;;;;;;;4999483;28;20030;-72
2022/01/11 08:09:40;;;;;;;111.80;54.10;;;;;;;;;;5014973;28;20084;-73
2022/01/11 08:12:08;;;;;;;130.23;52.72;;;;;;;;;;4999024;28;20079;-73
2022/01/11 08:14:35;;;;;;;138.95;57.53;;;;;;;;;;5014932;28;20030;-72
2022/01/11 08:17:02;;;;;;;130.35;55.72;;;;;;;;;;5016285;28;20038;-72
2022/01/11 08:19:30;;;;;;;125.20;52.70;;;;;;;;;;5015020;28;20025;-72
2022/01/11 08:21:57;;;;;;;127.32;52.55;;;;;;;;;;5015347;28;20180;-72
2022/01/11 08:24:23;;;;;;;132.77;53.20;;;;;;;;;;5015145;28;20115;-73
2022/01/11 08:26:51;;;;;;;126.15;51.67;;;;;;;;;;5015225;28;20029;-73
2022/01/11 08:29:18;;;;;;;140.68;55.63;;;;;;;;;;5015128;28;20045;-73
2022/01/11 08:31:45;;;;;;;148.40;61.70;;;;;;;;;;5015424;28;20032;-72
2022/01/11 08:34:13;;;;;;;141.88;56.25;;;;;;;;;;5019657;28;20014;-72
2022/01/11 08:36:41;;;;;;;120.10;54.58;;;;;;;;;;5003246;28;20688;-72
2022/01/11 08:39:07;;;;;;;130.05;57.72;;;;;;;;;;5003150;28;20030;-72
2022/01/11 08:41:34;;;;;;;130.13;55.45;;;;;;;;;;5019345;28;20022;-72
2022/01/11 08:44:01;;;;;;;125.93;53.13;;;;;;;;;;5003480;28;20022;-73
2022/01/11 08:46:27;;;;;;;127.40;56.95;;;;;;;;;;5003141;28;20036;-72
2022/01/11 08:48:53;;;;;;;118.22;58.10;;;;;;;;;;5020358;28;20084;-72
2022/01/11 08:51:20;;;;;;;134.40;56.85;;;;;;;;;;5038945;23;20045;-73
2022/01/11 08:53:49;;;;;;;129.73;57.80;;;;;;;;;;5041134;28;20025;-73
2022/01/11 08:56:20;;;;;;;129.43;51.00;;;;;;;;;;5040833;28;20325;-74
2022/01/11 08:58:47;;;;;;;134.82;55.50;;;;;;;;;;5042307;28;20020;-72
2022/01/11 09:01:18;;;;;;;133.95;58.78;;;;;;;;;;5058352;28;20036;-74
2022/01/11 09:03:58;;;;;;;141.45;53.45;;;;;;;;;;5056579;28;20013;-72
2022/01/11 09:06:24;;;;;;;140.90;56.05;;;;;;;;;;5059390;28;20025;-73
2022/01/11 09:08:51;;;;;;;135.95;55.67;;;;;;;;;;5057812;28;20047;-73
2022/01/11 09:11:20;;;;;;;154.20;70.25;;;;;;;;;;5059120;28;20052;-73
2022/01/11 09:13:46;;;;;;;137.65;55.72;;;;;;;;;;5058014;28;20098;-73
2022/01/11 09:16:13;;;;;;;152.63;63.10;;;;;;;;;;5059139;28;20142;-72
2022/01/11 09:18:39;;;;;;;137.48;58.72;;;;;;;;;;5042129;28;20016;-73
2022/01/11 09:21:06;;;;;;;139.23;53.88;;;;;;;;;;5057596;28;20067;-72
2022/01/11 09:23:32;;;;;;;143.02;60.78;;;;;;;;;;5056938;28;20438;-72
2022/01/11 09:25:59;;;;;;;165.57;59.33;;;;;;;;;;5059648;28;20415;-72
2022/01/11 09:28:25;;;;;;;144.82;60.30;;;;;;;;;;5057944;28;20115;-73
2022/01/11 09:30:51;;;;;;;144.45;62.08;;;;;;;;;;5058251;28;20025;-72
2022/01/11 09:33:18;;;;;;;151.65;64.78;;;;;;;;;;5041871;28;20029;-73
2022/01/11 09:35:44;;;;;;;136.65;59.80;;;;;;;;;;5057426;28;20017;-74
2022/01/11 09:38:17;;;;;;;137.75;56.60;;;;;;;;;;5056475;28;20021;-74
2022/01/11 09:40:43;;;;;;;135.68;60.22;;;;;;;;;;5055935;28;20017;-73
2022/01/11 09:43:11;;;;;;;128.70;56.85;;;;;;;;;;5057275;28;20013;-73
2022/01/11 09:45:41;;;;;;;127.38;53.72;;;;;;;;;;5041136;28;20078;-74
2022/01/11 09:48:10;;;;;;;129.30;54.75;;;;;;;;;;5057437;28;20021;-72
2022/01/11 09:50:37;;;;;;;132.88;57.65;;;;;;;;;;5058408;28;20025;-72
2022/01/11 09:53:03;;;;;;;133.98;56.90;;;;;;;;;;5056416;28;20017;-74
2022/01/11 09:55:29;;;;;;;134.25;57.72;;;;;;;;;;5056251;28;20025;-73
2022/01/11 09:57:56;;;;;;;136.50;58.95;;;;;;;;;;5057545;28;20116;-73
2022/01/11 10:00:22;;;;;;;124.65;52.72;;;;;;;;;;5059080;28;20025;-74
2022/01/11 10:02:49;;;;;;;145.00;68.05;;;;;;;;;;5041336;28;20074;-74
2022/01/11 10:05:15;;;;;;;141.88;60.20;;;;;;;;;;5057596;28;20021;-72
2022/01/11 10:07:47;;;;;;;133.55;56.08;;;;;;;;;;5056374;28;20080;-74
2022/01/11 10:10:24;;;;;;;141.32;60.92;;;;;;;;;;5039726;28;20051;-73
2022/01/11 10:12:51;;;;;;;132.73;52.20;;;;;;;;;;5057111;28;20013;-74
2022/01/11 10:15:29;;;;;;;133.63;56.03;;;;;;;;;;5057081;28;20124;-73
2022/01/11 10:17:55;;;;;;;138.27;61.28;;;;;;;;;;5057075;28;20029;-73
2022/01/11 10:20:22;;;;;;;133.40;58.25;;;;;;;;;;5058833;28;20323;-73
2022/01/11 10:22:57;;;;;;;126.97;56.60;;;;;;;;;;5040784;28;20380;-73
2022/01/11 10:25:24;;;;;;;130.43;56.40;;;;;;;;;;5056786;28;20041;-73
2022/01/11 10:28:20;;;;;;;144.77;58.17;;;;;;;;;;5054726;28;20099;-73
2022/01/11 10:30:59;;;;;;;130.88;53.92;;;;;;;;;;5054955;28;20112;-74
2022/01/11 10:33:27;;;;;;;146.70;60.13;;;;;;;;;;5041046;28;20075;-73
2022/01/11 10:35:53;;;;;;;147.45;62.92;;;;;;;;;;5058179;28;20017;-73
2022/01/11 10:38:28;;;;;;;139.07;58.65;;;;;;;;;;5056651;28;20063;-73
2022/01/11 10:41:01;;;;;;;154.50;62.60;;;;;;;;;;5055987;28;20036;-74
2022/01/11 10:43:41;;;;;;;149.10;59.80;;;;;;;;;;5057430;28;20017;-73
2022/01/11 10:46:08;;;;;;;137.80;54.70;;;;;;;;;;5035851;28;20031;-73
2022/01/11 10:48:44;;;;;;;149.88;61.42;;;;;;;;;;5041309;28;20116;-73
2022/01/11 10:51:14;;;;;;;126.63;55.90;;;;;;;;;;5037641;28;20419;-73
2022/01/11 10:53:56;;;;;;;120.20;49.60;;;;;;;;;;5055261;28;20103;-73
2022/01/11 10:56:40;;;;;;;131.75;52.80;;;;;;;;;;5038849;28;20049;-73
2022/01/11 10:59:10;;;;;;;124.15;50.42;;;;;;;;;;5056277;28;20058;-73
2022/01/11 11:01:38;;;;;;;122.28;56.70;;;;;;;;;;5040283;28;20020;-73
2022/01/11 11:04:10;;;;;;;128.35;53.58;;;;;;;;;;5045299;22;20042;-74
2022/01/11 11:07:13;;;;;;;119.00;51.72;;;;;;;;;;5035111;28;20430;-73
2022/01/11 11:09:48;;;;;;;125.35;57.35;;;;;;;;;;5019819;28;20457;-73
2022/01/11 11:12:15;;;;;;;128.93;57.97;;;;;;;;;;5034908;28;20014;-74
2022/01/11 11:14:50;;;;;;;129.50;53.20;;;;;;;;;;5017985;28;20331;-72
2022/01/11 11:17:31;;;;;;;103.88;50.40;;;;;;;;;;5037572;28;20038;-73
2022/01/11 11:20:00;;;;;;;112.63;50.40;;;;;;;;;;5019790;28;20017;-73
2022/01/11 11:22:27;;;;;;;118.38;49.35;;;;;;;;;;5020050;28;20034;-74
2022/01/11 11:24:54;;;;;;;124.97;56.80;;;;;;;;;;5020253;28;20313;-72
2022/01/11 11:27:21;;;;;;;157.40;64.32;;;;;;;;;;5036159;28;20328;-73
2022/01/11 11:29:48;;;;;;;134.57;66.05;;;;;;;;;;5020249;28;20108;-72
2022/01/11 11:32:20;;;;;;;128.18;56.53;;;;;;;;;;5019371;28;20025;-73
2022/01/11 11:34:57;;;;;;;143.63;59.70;;;;;;;;;;5019766;28;20379;-73
2022/01/11 11:37:27;;;;;;;141.20;59.42;;;;;;;;;;5035223;28;20103;-72
2022/01/11 11:39:58;;;;;;;143.75;60.70;;;;;;;;;;5036006;28;20428;-72
2022/01/11 11:42:26;;;;;;;147.68;64.40;;;;;;;;;;5020037;28;20022;-72
2022/01/11 11:44:54;;;;;;;145.07;61.95;;;;;;;;;;5035679;28;20017;-74
2022/01/11 11:47:34;;;;;;;143.60;63.70;;;;;;;;;;5035964;28;20116;-72
2022/01/11 11:50:06;;;;;;;143.10;71.30;;;;;;;;;;5036130;28;20057;-73
2022/01/11 11:52:38;;;;;;;150.60;62.10;;;;;;;;;;5037318;28;20023;-72
2022/01/11 11:55:09;;;;;;;160.30;67.18;;;;;;;;;;5036475;28;20021;-72
2022/01/11 11:57:35;;;;;;;;;;;;;;;;;;5020374;28;20132;-72
2022/01/11 12:00:05;;;;;;;147.63;66.78;;;;;;;;;;5019953;28;19941;-72
2022/01/11 12:02:33;;;;;;;141.97;61.50;;;;;;;;;;5037113;28;20021;-72
2022/01/11 12:04:59;;;;;;;152.68;65.57;;;;;;;;;;5036708;28;20026;-72
2022/01/11 12:07:32;;;;;;;133.07;62.47;;;;;;;;;;5019501;28;20406;-72
2022/01/11 12:09:58;;;;;;;144.80;66.07;;;;;;;;;;5036870;28;20380;-72
2022/01/11 12:12:52;;;;;;;166.65;69.85;;;;;;;;;;5036820;28;20025;-72
2022/01/11 12:15:34;;;;;;;144.57;62.17;;;;;;;;;;5030865;28;20029;-72
2022/01/11 12:18:00;;;;;;;140.18;59.70;;;;;;;;;;5036520;28;20045;-72
2022/01/11 12:20:44;;;;;;;137.77;68.38;;;;;;;;;;5036517;28;20487;-73
2022/01/11 12:23:20;;;;;;;130.07;61.83;;;;;;;;;;5035372;28;20050;-73
2022/01/11 12:25:50;;;;;;;112.05;52.63;;;;;;;;;;5035470;28;20032;-73
2022/01/11 12:28:17;;;;;;;134.98;59.63;;;;;;;;;;5035001;28;20029;-72
2022/01/11 12:30:44;;;;;;;117.30;52.92;;;;;;;;;;5035849;28;20370;-72
2022/01/11 12:33:10;;;;;;;116.43;51.35;;;;;;;;;;5035713;28;20025;-73
2022/01/11 12:35:54;;;;;;;117.80;55.45;;;;;;;;;;5035456;28;20427;-72
2022/01/11 12:38:21;;;;;;;120.72;49.00;;;;;;;;;;5036299;28;20033;-72
2022/01/11 12:40:49;;;;;;;109.53;51.22;;;;;;;;;;5035647;28;20040;-73
2022/01/11 12:43:35;;;;;;;114.30;46.97;;;;;;;;;;5019322;28;20021;-73
2022/01/11 12:46:03;;;;;;;106.30;51.63;;;;;;;;;;5019176;28;20017;-72
2022/01/11 12:48:49;;;;;;;105.20;51.60;;;;;;;;;;5019197;28;20021;-72
2022/01/11 12:51:25;;;;;;;112.22;48.88;;;;;;;;;;5036990;28;20029;-73
2022/01/11 12:54:09;;;;;;;118.75;48.22;;;;;;;;;;5035729;28;20025;-72
2022/01/11 12:56:36;;;;;;;126.45;61.55;;;;;;;;;;5018910;28;20037;-73
2022/01/11 12:59:02;;;;;;;108.68;51.45;;;;;;;;;;5035421;28;20026;-73
2022/01/11 13:01:31;;;;;;;103.65;47.60;;;;;;;;;;5035496;28;20312;-73
2022/01/11 13:04:00;;;;;;;98.80;49.42;;;;;;;;;;5019007;28;20035;-72
2022/01/11 13:06:32;;;;;;;92.88;45.15;;;;;;;;;;5036880;28;20017;-72
2022/01/11 13:09:01;;;;;;;100.22;50.20;;;;;;;;;;5034976;28;20324;-73
2022/01/11 13:11:27;;;;;;;100.15;48.92;;;;;;;;;;5036602;28;20013;-72
2022/01/11 13:14:17;;;;;;;94.63;43.42;;;;;;;;;;5034746;28;20022;-73
2022/01/11 13:16:44;;;;;;;98.35;45.67;;;;;;;;;;5036542;28;20423;-73
2022/01/11 13:19:17;;;;;;;100.07;50.20;;;;;;;;;;5036757;28;20053;-72
2022/01/11 13:21:49;;;;;;;107.95;48.75;;;;;;;;;;5022055;28;20017;-72
2022/01/11 13:26:50;;;;;;;99.13;49.60;;;;;;;;;;5038910;28;20420;-73
2022/01/11 13:29:20;;;;;;;97.10;48.17;;;;;;;;;;5038746;28;20335;-72
2022/01/11 13:31:51;;;;;;;105.38;49.80;;;;;;;;;;5039465;28;20435;-72
2022/01/11 13:34:21;;;;;;;97.32;49.20;;;;;;;;;;5022172;28;20025;-73
2022/01/11 13:36:51;;;;;;;104.72;48.90;;;;;;;;;;5039890;28;20030;-73
2022/01/11 13:39:24;;;;;;;96.07;46.55;;;;;;;;;;5038704;28;20412;-72
2022/01/11 13:41:53;;;;;;;92.28;44.72;;;;;;;;;;5038066;28;20021;-73
2022/01/11 13:44:20;;;;;;;94.63;45.45;;;;;;;;;;5038621;28;20127;-72
2022/01/11 13:46:45;;;;;;;96.43;45.83;;;;;;;;;;5038963;28;20049;-72
2022/01/11 13:49:16;;;;;;;79.80;40.08;;;;;;;;;;5039715;28;20025;-72
2022/01/11 13:51:47;;;;;;;87.90;43.63;;;;;;;;;;5038153;28;20048;-72
2022/01/11 13:54:13;;;;;;;92.60;41.70;;;;;;;;;;5039490;28;20408;-73
2022/01/11 13:56:42;;;;;;;90.20;43.72;;;;;;;;;;5021754;28;20048;-73
2022/01/11 13:59:10;;;;;;;85.15;45.42;;;;;;;;;;5039700;28;20048;-73
2022/01/11 14:01:37;;;;;;;79.30;41.47;;;;;;;;;;5038554;28;20029;-72
2022/01/11 14:04:07;;;;;;;79.65;42.13;;;;;;;;;;5038020;28;20048;-72
2022/01/11 14:06:44;;;;;;;91.10;45.97;;;;;;;;;;5038342;28;20044;-72
2022/01/11 14:09:12;;;;;;;84.10;43.95;;;;;;;;;;5038284;28;20416;-72
2022/01/11 14:11:40;;;;;;;88.97;44.28;;;;;;;;;;5037727;28;20083;-72
2022/01/11 14:14:07;;;;;;;102.07;47.28;;;;;;;;;;5039362;28;20021;-72
2022/01/11 14:16:41;;;;;;;95.85;44.53;;;;;;;;;;5021238;28;20063;-72
2022/01/11 14:19:12;;;;;;;91.68;43.00;;;;;;;;;;5037530;28;20040;-73
2022/01/11 14:21:58;;;;;;;95.85;45.70;;;;;;;;;;5021477;28;20025;-73
2022/01/11 14:24:43;;;;;;;90.32;44.97;;;;;;;;;;5039379;28;20053;-72
2022/01/11 14:27:20;;;;;;;93.30;45.45;;;;;;;;;;5037789;28;20021;-72